createdAt,value
2022-08-26T00:02:19.288Z,100730.63
2022-08-26T00:04:50.098Z,100723.00
2022-08-26T00:07:19.258Z,100718.38
2022-08-26T00:09:48.154Z,100727.94
2022-08-26T00:12:18.260Z,100734.81
2022-08-26T00:14:47.138Z,100729.06
2022-08-26T00:17:16.261Z,100722.47
2022-08-26T00:19:44.169Z,100726.34
2022-08-26T00:25:24.573Z,100725.28
2022-08-26T00:27:53.781Z,100719.25
2022-08-26T00:30:28.203Z,100720.59
2022-08-26T00:32:58.033Z,100718.72
2022-08-26T00:35:27.883Z,100725.88
2022-08-26T00:37:57.535Z,100716.50
2022-08-26T00:40:34.988Z,100710.97
2022-08-26T00:43:07.123Z,100703.22
2022-08-26T00:45:46.045Z,100709.34
2022-08-26T00:48:18.810Z,100710.16
2022-08-26T00:51:12.404Z,100711.56
2022-08-26T00:53:50.969Z,100697.22
2022-08-26T00:56:32.596Z,100700.53
2022-08-26T00:59:05.371Z,100697.22
2022-08-26T01:01:34.345Z,100684.84
2022-08-26T01:04:03.362Z,100690.88
2022-08-26T01:06:34.283Z,100695.31
2022-08-26T01:09:05.165Z,100684.34
2022-08-26T01:11:36.803Z,100684.28
2022-08-26T01:14:07.040Z,100689.31
2022-08-26T01:16:37.382Z,100690.13
2022-08-26T01:19:38.931Z,100684.13
2022-08-26T01:25:05.376Z,100668.72
2022-08-26T01:27:36.340Z,100671.97
2022-08-26T01:30:06.454Z,100673.72
2022-08-26T01:32:36.511Z,100662.63
2022-08-26T01:35:08.452Z,100672.59
2022-08-26T01:37:40.454Z,100670.13
2022-08-26T01:40:15.215Z,100675.63
2022-08-26T01:42:47.535Z,100672.31
2022-08-26T01:45:25.552Z,100663.81
2022-08-26T01:47:58.520Z,100666.06
2022-08-26T01:50:33.589Z,100673.78
2022-08-26T01:53:07.935Z,100672.69
2022-08-26T01:55:41.907Z,100685.94
2022-08-26T01:58:18.871Z,100678.78
2022-08-26T02:00:48.646Z,100691.44
2022-08-26T02:03:22.450Z,100685.94
2022-08-26T02:05:56.262Z,100675.47
2022-08-26T02:08:49.712Z,100677.69
2022-08-26T02:11:19.601Z,100688.16
2022-08-26T02:14:16.456Z,100684.88
2022-08-26T02:16:49.209Z,100691.44
2022-08-26T02:19:22.493Z,100697.56
2022-08-26T02:21:53.866Z,100688.44
2022-08-26T02:24:29.020Z,100689.28
2022-08-26T02:26:58.629Z,100693.69
2022-08-26T02:29:35.403Z,100688.47
2022-08-26T02:32:08.469Z,100695.31
2022-08-26T02:34:39.048Z,100697.00
2022-08-26T02:37:10.811Z,100706.09
2022-08-26T02:39:43.032Z,100703.88
2022-08-26T02:42:12.429Z,100702.00
2022-08-26T02:44:40.989Z,100710.50
2022-08-26T02:47:10.261Z,100697.31
2022-08-26T02:49:40.487Z,100705.03
2022-08-26T02:52:15.703Z,100705.53
2022-08-26T02:54:44.254Z,100714.34
2022-08-26T02:57:15.526Z,100709.13
2022-08-26T02:59:45.067Z,100725.63
2022-08-26T03:02:14.354Z,100735.00
2022-08-26T03:04:57.707Z,100737.22
2022-08-26T03:07:30.852Z,100748.50
2022-08-26T03:09:59.602Z,100746.34
2022-08-26T03:12:29.305Z,100755.13
2022-08-26T03:15:00.996Z,100754.31
2022-08-26T03:17:30.249Z,100755.69
2022-08-26T03:19:59.092Z,100750.72
2022-08-26T03:22:28.255Z,100751.56
2022-08-26T03:24:56.963Z,100745.19
2022-08-26T03:27:26.248Z,100746.63
2022-08-26T03:30:16.617Z,100744.94
2022-08-26T03:32:44.918Z,100741.91
2022-08-26T03:35:14.864Z,100749.88
2022-08-26T03:37:43.808Z,100737.81
2022-08-26T03:40:13.318Z,100749.59
2022-08-26T03:42:45.339Z,100735.03
2022-08-26T03:45:15.995Z,100743.84
2022-08-26T03:47:44.902Z,100744.66
2022-08-26T03:50:17.995Z,100747.16
2022-08-26T03:52:53.145Z,100741.06
2022-08-26T03:55:27.320Z,100736.69
2022-08-26T03:57:56.060Z,100735.84
2022-08-26T04:00:25.151Z,100723.22
2022-08-26T04:02:56.439Z,100735.84
2022-08-26T04:05:25.633Z,100731.78
2022-08-26T04:07:56.113Z,100730.91
2022-08-26T04:10:28.939Z,100726.78
2022-08-26T04:12:59.295Z,100722.41
2022-08-26T04:15:28.728Z,100716.88
2022-08-26T04:17:57.318Z,100708.63
2022-08-26T04:20:29.202Z,100724.03
2022-08-26T04:22:57.918Z,100711.66
2022-08-26T04:25:26.025Z,100725.66
2022-08-26T04:27:55.178Z,100714.69
2022-08-26T04:30:24.344Z,100718.53
2022-08-26T04:32:53.927Z,100703.94
2022-08-26T04:35:26.012Z,100711.66
2022-08-26T04:37:55.593Z,100701.50
2022-08-26T04:40:24.643Z,100702.03
2022-08-26T04:42:55.214Z,100706.16
2022-08-26T04:45:24.827Z,100709.16
2022-08-26T04:47:56.539Z,100725.13
2022-08-26T04:50:26.558Z,100711.91
2022-08-26T04:52:55.836Z,100722.94
2022-08-26T04:55:39.679Z,100725.41
2022-08-26T04:58:15.660Z,100720.47
2022-08-26T05:00:46.143Z,100728.41
2022-08-26T05:03:17.125Z,100735.03
2022-08-26T05:05:47.808Z,100735.56
2022-08-26T05:08:19.099Z,100732.84
2022-08-26T05:10:56.553Z,100737.78
2022-08-26T05:13:27.651Z,100728.16
2022-08-26T05:16:04.508Z,100727.31
2022-08-26T05:18:35.785Z,100730.09
2022-08-26T05:21:05.847Z,100730.09
2022-08-26T05:30:24.736Z,100731.47
2022-08-26T05:32:55.363Z,100735.59
2022-08-26T05:35:24.107Z,100727.31
2022-08-26T05:37:56.731Z,100726.22
2022-08-26T05:40:26.307Z,100731.72
2022-08-26T05:42:57.006Z,100731.19
2022-08-26T05:45:27.778Z,100730.63
2022-08-26T05:47:58.274Z,100734.75
2022-08-26T05:50:27.086Z,100735.31
2022-08-26T05:52:55.510Z,100744.16
2022-08-26T05:55:24.685Z,100732.81
2022-08-26T05:57:53.964Z,100741.09
2022-08-26T06:00:25.012Z,100743.31
2022-08-26T06:02:53.238Z,100741.38
2022-08-26T06:05:23.862Z,100747.69
2022-08-26T06:08:12.471Z,100749.38
2022-08-26T06:10:53.533Z,100758.13
2022-08-26T06:13:27.047Z,100755.38
2022-08-26T06:15:59.523Z,100765.88
2022-08-26T06:18:33.395Z,100775.75
2022-08-26T06:21:24.155Z,100785.13
2022-08-26T06:24:15.620Z,100783.19
2022-08-26T06:26:56.953Z,100792.81
2022-08-26T06:29:26.648Z,100786.47
2022-08-26T06:31:56.948Z,100796.66
2022-08-26T06:34:30.537Z,100795.56
2022-08-26T06:37:06.681Z,100794.44
2022-08-26T06:39:41.045Z,100803.50
2022-08-26T06:42:10.809Z,100804.34
2022-08-26T06:44:44.677Z,100807.09
2022-08-26T06:47:15.622Z,100803.78
2022-08-26T06:50:01.222Z,100812.59
2022-08-26T06:52:30.014Z,100819.19
2022-08-26T06:55:00.129Z,100816.97
2022-08-26T06:57:28.867Z,100814.19
2022-08-26T07:00:02.380Z,100825.19
2022-08-26T07:02:31.207Z,100821.31
2022-08-26T07:05:00.128Z,100815.72
2022-08-26T07:07:29.684Z,100819.56
2022-08-26T07:09:58.271Z,100818.94
2022-08-26T07:12:27.741Z,100811.47
2022-08-26T07:14:56.286Z,100818.03
2022-08-26T07:17:26.313Z,100822.44
2022-08-26T07:19:56.186Z,100810.56
2022-08-26T07:22:25.099Z,100811.09
2022-08-26T07:24:52.964Z,100812.88
2022-08-26T07:27:21.969Z,100813.59
2022-08-26T07:29:50.122Z,100813.03
2022-08-26T07:32:20.898Z,100811.38
2022-08-26T07:34:51.850Z,100810.72
2022-08-26T07:37:20.683Z,100810.97
2022-08-26T07:39:49.312Z,100807.66
2022-08-26T07:42:20.705Z,100797.19
2022-08-26T07:44:49.347Z,100809.56
2022-08-26T07:47:24.589Z,100788.31
2022-08-26T07:49:57.807Z,100796.31
2022-08-26T07:52:30.738Z,100796.84
2022-08-26T07:55:02.069Z,100801.84
2022-08-26T07:57:32.268Z,100798.03
2022-08-26T08:00:00.572Z,100799.09
2022-08-26T08:02:30.375Z,100798.50
2022-08-26T08:05:00.434Z,100795.22
2022-08-26T08:07:44.940Z,100787.38
2022-08-26T08:10:19.299Z,100787.72
2022-08-26T08:12:50.294Z,100785.16
2022-08-26T08:15:24.408Z,100796.31
2022-08-26T08:17:58.862Z,100805.13
2022-08-26T08:20:30.474Z,100806.22
2022-08-26T08:22:59.569Z,100803.78
2022-08-26T08:25:29.856Z,100801.41
2022-08-26T08:27:57.812Z,100799.75
2022-08-26T08:30:28.244Z,100792.69
2022-08-26T08:32:57.473Z,100797.13
2022-08-26T08:35:30.164Z,100793.97
2022-08-26T08:38:04.166Z,100787.19
2022-08-26T08:40:33.286Z,100797.13
2022-08-26T08:43:13.749Z,100792.16
2022-08-26T08:45:58.535Z,100788.47
2022-08-26T08:48:37.225Z,100780.13
2022-08-26T08:51:26.665Z,100779.53
2022-08-26T08:53:56.485Z,100770.72
2022-08-26T08:56:49.895Z,100775.06
2022-08-26T08:59:25.204Z,100768.41
2022-08-26T09:02:27.532Z,100770.19
2022-08-26T09:05:15.036Z,100777.09
2022-08-26T09:08:06.598Z,100770.91
2022-08-26T09:10:47.209Z,100773.38
2022-08-26T09:13:25.130Z,100765.22
2022-08-26T09:16:11.043Z,100771.63
2022-08-26T09:19:18.960Z,100766.88
2022-08-26T09:21:56.846Z,100774.34
2022-08-26T09:24:28.491Z,100770.44
2022-08-26T09:27:01.456Z,100771.75
2022-08-26T09:29:41.332Z,100765.00
2022-08-26T09:32:27.299Z,100774.19
2022-08-26T09:35:13.520Z,100778.13
2022-08-26T09:40:29.475Z,100775.22
2022-08-26T09:43:21.985Z,100770.78
2022-08-26T09:45:59.431Z,100766.19
2022-08-26T09:48:36.239Z,100764.56
2022-08-26T09:51:27.735Z,100754.63
2022-08-26T09:53:58.622Z,100756.81
2022-08-26T09:56:36.405Z,100751.59
2022-08-26T09:59:11.133Z,100758.75
2022-08-26T10:01:45.028Z,100750.75
2022-08-26T10:04:27.145Z,100751.31
2022-08-26T10:07:07.713Z,100757.94
2022-08-26T10:09:42.164Z,100749.41
2022-08-26T10:12:19.372Z,100751.31
2022-08-26T10:15:10.165Z,100745.25
2022-08-26T10:17:40.054Z,100750.00
2022-08-26T10:20:23.581Z,100741.94
2022-08-26T10:23:14.081Z,100728.66
2022-08-26T10:26:13.296Z,100735.22
2022-08-26T10:29:01.612Z,100741.47
2022-08-26T10:31:40.612Z,100745.53
2022-08-26T10:34:12.349Z,100735.56
2022-08-26T10:37:16.448Z,100741.53
2022-08-26T10:40:13.240Z,100736.28
2022-08-26T10:43:12.808Z,100735.34
2022-08-26T10:45:56.732Z,100736.63
2022-08-26T10:49:13.637Z,100743.72
2022-08-26T10:52:04.384Z,100739.59
2022-08-26T10:54:53.599Z,100741.25
2022-08-26T10:57:59.209Z,100752.53
2022-08-26T11:01:01.751Z,100750.53
2022-08-26T11:04:02.418Z,100748.31
2022-08-26T11:06:31.835Z,100753.22
2022-08-26T11:09:05.222Z,100754.88
2022-08-26T11:11:42.453Z,100752.63
2022-08-26T11:14:28.740Z,100760.59
2022-08-26T11:17:01.549Z,100760.28
2022-08-26T11:20:01.468Z,100750.50
2022-08-26T11:22:47.353Z,100741.56
2022-08-26T11:25:19.558Z,100751.22
2022-08-26T11:27:56.079Z,100744.97
2022-08-26T11:30:39.119Z,100753.13
2022-08-26T11:33:09.306Z,100745.06
2022-08-26T11:35:43.668Z,100747.97
2022-08-26T11:38:20.547Z,100747.81
2022-08-26T11:41:11.891Z,100743.78
2022-08-26T11:43:41.699Z,100750.34
2022-08-26T11:46:13.069Z,100732.69
2022-08-26T11:48:44.903Z,100735.59
2022-08-26T11:51:16.409Z,100734.72
2022-08-26T11:53:47.201Z,100736.41
2022-08-26T11:56:33.918Z,100727.53
2022-08-26T11:59:10.052Z,100735.56
2022-08-26T12:01:46.145Z,100719.22
2022-08-26T12:04:30.081Z,100715.31
2022-08-26T12:07:02.268Z,100714.28
2022-08-26T12:09:35.193Z,100707.09
2022-08-26T12:12:43.715Z,100717.78
2022-08-26T12:15:23.099Z,100716.53
2022-08-26T12:17:54.637Z,100716.13
2022-08-26T12:20:54.232Z,100708.94
2022-08-26T12:23:39.290Z,100710.56
2022-08-26T12:26:16.206Z,100710.25
2022-08-26T12:28:48.594Z,100705.13
2022-08-26T12:31:43.242Z,100709.50
2022-08-26T12:34:18.615Z,100707.50
2022-08-26T12:39:39.767Z,100718.38
2022-08-26T12:42:42.567Z,100706.38
2022-08-26T12:45:11.696Z,100710.66
2022-08-26T12:47:44.119Z,100713.06
2022-08-26T12:50:23.653Z,100715.31
2022-08-26T12:53:03.989Z,100710.78
2022-08-26T12:55:40.326Z,100703.59
2022-08-26T12:58:31.911Z,100691.91
2022-08-26T13:01:09.295Z,100701.97
2022-08-26T13:03:45.706Z,100694.75
2022-08-26T13:06:30.212Z,100684.78
2022-08-26T13:09:12.907Z,100687.56
2022-08-26T13:11:45.198Z,100695.44
2022-08-26T13:14:21.113Z,100688.47
2022-08-26T13:16:53.829Z,100688.50
2022-08-26T13:19:25.870Z,100688.22
2022-08-26T13:21:58.034Z,100689.38
2022-08-26T13:24:34.478Z,100698.34
2022-08-26T13:27:05.010Z,100697.97
2022-08-26T13:29:34.603Z,100702.16
2022-08-26T13:32:06.137Z,100708.09
2022-08-26T13:34:39.493Z,100709.84
2022-08-26T13:37:08.970Z,100722.50
2022-08-26T13:39:38.404Z,100720.63
2022-08-26T13:42:07.329Z,100719.00
2022-08-26T13:44:39.166Z,100709.78
2022-08-26T13:47:08.771Z,100700.50
2022-08-26T13:49:37.199Z,100695.16
2022-08-26T13:52:05.362Z,100695.59
2022-08-26T13:54:33.628Z,100699.03
2022-08-26T13:57:02.523Z,100698.13
2022-08-26T13:59:31.141Z,100704.59
2022-08-26T14:02:03.026Z,100698.44
2022-08-26T14:04:31.246Z,100710.72
2022-08-26T14:07:00.612Z,100706.22
2022-08-26T14:09:29.128Z,100716.25
2022-08-26T14:12:00.965Z,100725.31
2022-08-26T14:14:30.403Z,100729.69
2022-08-26T14:17:00.531Z,100735.31
2022-08-26T14:19:33.340Z,100735.41
2022-08-26T14:22:04.162Z,100729.75
2022-08-26T14:24:34.198Z,100722.19
2022-08-26T14:27:04.644Z,100718.47
2022-08-26T14:29:33.280Z,100720.19
2022-08-26T14:32:07.115Z,100725.91
2022-08-26T14:34:36.826Z,100723.81
2022-08-26T14:37:09.894Z,100723.53
2022-08-26T14:39:41.716Z,100721.59
2022-08-26T14:42:10.986Z,100717.25
2022-08-26T14:44:44.947Z,100712.09
2022-08-26T14:47:13.438Z,100706.94
2022-08-26T14:49:42.102Z,100698.41
2022-08-26T14:52:10.172Z,100687.22
2022-08-26T14:54:38.102Z,100676.97
2022-08-26T14:57:12.229Z,100664.38
2022-08-26T14:59:49.606Z,100646.47
2022-08-26T15:02:32.812Z,100640.41
2022-08-26T15:05:08.803Z,100637.50
2022-08-26T15:07:41.024Z,100631.44
2022-08-26T15:10:13.947Z,100630.53
2022-08-26T15:12:43.330Z,100624.19
2022-08-26T15:15:15.503Z,100651.84
2022-08-26T15:17:44.890Z,100656.00
2022-08-26T15:20:16.546Z,100664.09
2022-08-26T15:22:45.273Z,100668.41
2022-08-26T15:25:15.583Z,100669.63
2022-08-26T15:27:44.572Z,100667.00
2022-08-26T15:30:13.982Z,100661.47
2022-08-26T15:32:50.343Z,100655.72
2022-08-26T15:35:19.986Z,100654.22
2022-08-26T15:40:22.305Z,100652.56
2022-08-26T15:43:01.122Z,100648.22
2022-08-26T15:45:35.921Z,100646.16
2022-08-26T15:48:04.958Z,100650.63
2022-08-26T15:50:36.248Z,100656.72
2022-08-26T15:53:05.518Z,100663.59
2022-08-26T15:55:34.953Z,100661.66
2022-08-26T15:58:03.216Z,100664.41
2022-08-26T16:00:32.553Z,100669.41
2022-08-26T16:03:01.132Z,100667.78
2022-08-26T16:05:30.950Z,100666.94
2022-08-26T16:07:59.319Z,100661.22
2022-08-26T16:10:31.406Z,100660.94
2022-08-26T16:13:00.759Z,100661.22
2022-08-26T16:15:30.376Z,100670.69
2022-08-26T16:18:03.434Z,100684.59
2022-08-26T16:20:35.546Z,100702.78
2022-08-26T16:23:06.392Z,100699.63
2022-08-26T16:25:39.003Z,100684.53
2022-08-26T16:28:11.644Z,100684.53
2022-08-26T16:30:42.779Z,100680.59
2022-08-26T16:33:15.196Z,100681.50
2022-08-26T16:35:59.993Z,100684.28
2022-08-26T16:38:28.387Z,100687.13
2022-08-26T16:43:58.696Z,100670.38
2022-08-26T16:49:13.211Z,100669.84
2022-08-26T16:51:42.738Z,100668.22
2022-08-26T16:54:10.574Z,100665.47
2022-08-26T16:56:40.665Z,100659.13
2022-08-26T16:59:12.275Z,100662.41
2022-08-26T17:01:42.115Z,100656.38
2022-08-26T17:04:15.442Z,100651.69
2022-08-26T17:06:47.139Z,100656.94
2022-08-26T17:09:15.974Z,100661.59
2022-08-26T17:11:46.410Z,100649.75
2022-08-26T17:14:14.391Z,100651.91
2022-08-26T17:16:43.696Z,100648.59
2022-08-26T17:19:12.633Z,100654.34
2022-08-26T17:21:41.854Z,100655.72
2022-08-26T17:24:13.463Z,100643.53
2022-08-26T17:26:48.312Z,100643.53
2022-08-26T17:29:19.179Z,100642.94
2022-08-26T17:31:48.212Z,100646.50
2022-08-26T17:34:19.373Z,100642.88
2022-08-26T17:36:47.351Z,100646.72
2022-08-26T17:39:17.123Z,100647.81
2022-08-26T17:41:49.342Z,100645.03
2022-08-26T17:44:19.239Z,100649.38
2022-08-26T17:46:49.649Z,100650.47
2022-08-26T17:49:18.451Z,100648.81
2022-08-26T17:51:49.266Z,100651.31
2022-08-26T17:54:20.042Z,100648.47
2022-08-26T17:56:50.000Z,100650.94
2022-08-26T17:59:22.509Z,100650.63
2022-08-26T18:01:55.167Z,100652.56
2022-08-26T18:04:24.169Z,100652.00
2022-08-26T18:06:53.088Z,100647.31
2022-08-26T18:09:26.621Z,100647.28
2022-08-26T18:11:56.447Z,100639.25
2022-08-26T18:14:25.970Z,100642.03
2022-08-26T18:16:56.084Z,100645.31
2022-08-26T18:19:24.287Z,100637.88
2022-08-26T18:21:55.340Z,100635.41
2022-08-26T18:24:23.285Z,100642.00
2022-08-26T18:26:52.067Z,100627.66
2022-08-26T18:29:20.751Z,100629.84
2022-08-26T18:31:50.321Z,100629.31
2022-08-26T18:34:20.056Z,100625.97
2022-08-26T18:36:49.672Z,100625.44
2022-08-26T18:39:23.457Z,100622.63
2022-08-26T18:41:55.514Z,100627.31
2022-08-26T18:44:25.340Z,100619.59
2022-08-26T18:46:54.211Z,100616.25
2022-08-26T18:49:24.381Z,100620.94
2022-08-26T18:51:53.883Z,100614.34
2022-08-26T18:54:23.250Z,100616.53
2022-08-26T18:56:53.245Z,100612.69
2022-08-26T18:59:30.512Z,100616.28
2022-08-26T19:02:00.356Z,100612.16
2022-08-26T19:04:29.719Z,100607.75
2022-08-26T19:06:58.161Z,100612.72
2022-08-26T19:09:33.048Z,100609.13
2022-08-26T19:12:03.596Z,100608.91
2022-08-26T19:14:32.936Z,100601.50
2022-08-26T19:17:02.754Z,100608.38
2022-08-26T19:19:33.956Z,100604.53
2022-08-26T19:22:03.349Z,100608.41
2022-08-26T19:24:32.627Z,100597.38
2022-08-26T19:27:02.632Z,100604.00
2022-08-26T19:29:36.032Z,100598.50
2022-08-26T19:32:04.884Z,100597.38
2022-08-26T19:34:34.656Z,100598.19
2022-08-26T19:37:03.140Z,100596.06
2022-08-26T19:39:32.470Z,100600.75
2022-08-26T19:42:00.808Z,100587.00
2022-08-26T19:44:48.634Z,100600.22
2022-08-26T19:47:17.141Z,100594.19
2022-08-26T19:49:45.870Z,100597.50
2022-08-26T19:52:14.108Z,100596.44
2022-08-26T19:54:44.686Z,100599.78
2022-08-26T19:57:13.038Z,100597.03
2022-08-26T19:59:42.511Z,100589.28
2022-08-26T20:02:12.184Z,100592.03
2022-08-26T20:04:41.827Z,100585.16
2022-08-26T20:07:12.921Z,100584.88
2022-08-26T20:09:45.540Z,100585.16
2022-08-26T20:12:15.567Z,100589.84
2022-08-26T20:14:45.185Z,100585.47
2022-08-26T20:17:13.248Z,100581.56
2022-08-26T20:20:01.780Z,100574.97
2022-08-26T20:22:31.536Z,100582.13
2022-08-26T20:25:00.966Z,100573.88
2022-08-26T20:27:38.126Z,100579.91
2022-08-26T20:30:09.308Z,100578.75
2022-08-26T20:32:38.852Z,100573.25
2022-08-26T20:35:10.858Z,100581.50
2022-08-26T20:37:41.876Z,100576.00
2022-08-26T20:40:13.440Z,100579.31
2022-08-26T20:42:42.791Z,100578.75
2022-08-26T20:45:11.763Z,100584.03
2022-08-26T20:47:43.110Z,100573.00
2022-08-26T20:50:11.342Z,100576.56
2022-08-26T20:52:43.200Z,100578.22
2022-08-26T20:55:12.386Z,100583.22
2022-08-26T20:57:43.623Z,100577.09
2022-08-26T21:00:16.104Z,100588.38
2022-08-26T21:02:46.561Z,100577.38
2022-08-26T21:05:15.624Z,100570.44
2022-08-26T21:07:44.218Z,100578.72
2022-08-26T21:10:15.218Z,100585.66
2022-08-26T21:12:45.677Z,100576.56
2022-08-26T21:15:14.793Z,100578.75
2022-08-26T21:17:44.923Z,100567.28
2022-08-26T21:20:13.332Z,100586.00
2022-08-26T21:22:44.028Z,100566.16
2022-08-26T21:25:15.051Z,100566.19
2022-08-26T21:27:43.645Z,100570.84
2022-08-26T21:30:15.586Z,100568.63
2022-08-26T21:32:44.254Z,100562.31
2022-08-26T21:35:13.339Z,100568.91
2022-08-26T21:37:41.558Z,100563.44
2022-08-26T21:40:11.176Z,100561.31
2022-08-26T21:42:40.083Z,100567.91
2022-08-26T21:45:08.508Z,100564.03
2022-08-26T21:47:37.685Z,100560.78
2022-08-26T21:50:07.187Z,100569.28
2022-08-26T21:52:39.276Z,100556.91
2022-08-26T21:55:08.934Z,100551.94
2022-08-26T21:57:38.229Z,100549.22
2022-08-26T22:00:10.393Z,100544.28
2022-08-26T22:02:38.197Z,100549.19
2022-08-26T22:05:06.384Z,100546.50
2022-08-26T22:07:36.097Z,100539.66
2022-08-26T22:10:04.883Z,100549.56
2022-08-26T22:12:36.392Z,100542.06
2022-08-26T22:15:06.694Z,100542.13
2022-08-26T22:17:35.493Z,100540.50
2022-08-26T22:20:07.510Z,100542.72
2022-08-26T22:22:46.297Z,100532.84
2022-08-26T22:25:14.291Z,100534.50
2022-08-26T22:27:43.492Z,100537.25
2022-08-26T22:30:13.123Z,100539.47
2022-08-26T22:32:41.271Z,100537.53
2022-08-26T22:35:29.113Z,100538.34
2022-08-26T22:37:59.831Z,100536.72
2022-08-26T22:40:29.110Z,100529.09
2022-08-26T22:42:58.079Z,100534.59
2022-08-26T22:45:31.681Z,100524.06
2022-08-26T22:48:05.231Z,100524.13
2022-08-26T22:50:34.999Z,100525.75
2022-08-26T22:53:03.293Z,100521.41
2022-08-26T22:55:32.091Z,100514.53
2022-08-26T22:58:05.212Z,100525.25
2022-08-26T23:00:34.579Z,100526.91
2022-08-26T23:03:04.680Z,100524.69
2022-08-26T23:05:33.268Z,100519.25
2022-08-26T23:08:03.283Z,100515.13
2022-08-26T23:10:32.862Z,100511.03
2022-08-26T23:13:08.363Z,100522.00
2022-08-26T23:15:39.823Z,100517.13
2022-08-26T23:18:10.620Z,100515.44
2022-08-26T23:20:39.854Z,100513.56
2022-08-26T23:23:08.879Z,100518.16
2022-08-26T23:25:37.205Z,100519.06
2022-08-26T23:28:05.987Z,100517.38
2022-08-26T23:30:35.271Z,100513.22
2022-08-26T23:33:05.848Z,100515.22
2022-08-26T23:35:34.215Z,100518.25
2022-08-26T23:38:04.576Z,100520.44
2022-08-26T23:40:35.368Z,100529.25
2022-08-26T23:43:07.788Z,100526.03
2022-08-26T23:45:36.433Z,100531.22
2022-08-26T23:48:06.302Z,100529.00
2022-08-26T23:50:57.325Z,100536.19
2022-08-26T23:53:25.293Z,100527.91
2022-08-26T23:55:54.509Z,100533.97
2022-08-26T23:58:23.237Z,100526.03
